createdAt,value
2023-01-19T00:04:21.888Z,1.64
2023-01-19T00:09:24.875Z,1.66
2023-01-19T00:14:27.806Z,1.68
2023-01-19T00:19:30.703Z,1.70
2023-01-19T00:24:33.917Z,1.69
2023-01-19T00:29:36.930Z,1.69
2023-01-19T00:34:43.144Z,1.69
2023-01-19T00:39:46.006Z,1.67
2023-01-19T00:44:48.908Z,1.64
2023-01-19T00:49:51.813Z,1.62
2023-01-19T00:54:54.616Z,1.60
2023-01-19T00:59:57.519Z,1.57
2023-01-19T01:05:03.440Z,1.54
2023-01-19T01:10:11.757Z,1.48
2023-01-19T01:15:16.148Z,1.44
2023-01-19T01:20:23.371Z,1.42
2023-01-19T01:25:28.615Z,1.39
2023-01-19T01:30:31.534Z,1.37
2023-01-19T01:35:34.541Z,1.35
2023-01-19T01:40:40.960Z,1.32
2023-01-19T01:45:44.131Z,1.30
2023-01-19T01:51:12.750Z,1.27
2023-01-19T01:56:20.059Z,1.25
2023-01-19T02:01:41.645Z,1.23
2023-01-19T02:07:03.748Z,1.21
2023-01-19T02:12:26.107Z,1.19
2023-01-19T02:17:29.113Z,1.18
2023-01-19T02:22:38.774Z,1.17
2023-01-19T02:27:42.808Z,1.17
2023-01-19T02:32:46.023Z,1.18
2023-01-19T02:37:49.208Z,1.18
2023-01-19T02:42:56.952Z,1.18
2023-01-19T02:47:59.954Z,1.18
2023-01-19T02:53:25.387Z,1.18
2023-01-19T02:58:48.158Z,1.17
2023-01-19T03:04:00.794Z,1.14
2023-01-19T03:09:15.677Z,1.12
2023-01-19T03:14:25.893Z,1.10
2023-01-19T03:19:40.598Z,1.11
2023-01-19T03:24:46.435Z,1.12
2023-01-19T03:29:54.130Z,1.13
2023-01-19T03:35:01.546Z,1.09
2023-01-19T03:40:05.803Z,1.04
2023-01-19T03:45:10.761Z,0.99
2023-01-19T03:50:24.304Z,0.95
2023-01-19T03:55:27.379Z,0.91
2023-01-19T04:00:31.112Z,0.86
2023-01-19T04:05:34.220Z,0.75
2023-01-19T04:10:37.644Z,0.62
2023-01-19T04:15:40.576Z,0.50
2023-01-19T04:20:43.432Z,0.41
2023-01-19T04:25:46.440Z,0.28
2023-01-19T04:30:55.157Z,0.17
2023-01-19T04:35:58.495Z,0.11
2023-01-19T04:41:01.404Z,0.15
2023-01-19T04:46:04.423Z,0.23
2023-01-19T04:51:07.518Z,0.35
2023-01-19T04:56:11.644Z,0.45
2023-01-19T05:01:14.770Z,0.52
2023-01-19T05:06:17.873Z,0.55
2023-01-19T05:11:21.180Z,0.56
2023-01-19T05:16:24.464Z,0.53
2023-01-19T05:21:28.937Z,0.50
2023-01-19T05:26:31.839Z,0.45
2023-01-19T05:31:34.933Z,0.42
2023-01-19T05:36:38.162Z,0.38
2023-01-19T05:41:42.196Z,0.34
2023-01-19T05:46:45.094Z,0.31
2023-01-19T05:51:48.104Z,0.26
2023-01-19T05:56:51.003Z,0.20
2023-01-19T06:01:54.572Z,0.16
2023-01-19T06:06:57.726Z,0.14
2023-01-19T06:12:00.635Z,0.12
2023-01-19T06:17:04.051Z,0.10
2023-01-19T06:22:06.952Z,0.07
2023-01-19T06:27:09.859Z,0.04
2023-01-19T06:32:12.803Z,-0.00
2023-01-19T06:37:16.894Z,-0.06
2023-01-19T06:42:19.803Z,-0.11
2023-01-19T06:47:22.705Z,-0.14
2023-01-19T06:52:25.924Z,-0.14
2023-01-19T06:57:28.821Z,-0.14
2023-01-19T07:02:31.908Z,-0.14
2023-01-19T07:07:36.522Z,-0.10
2023-01-19T07:12:39.786Z,-0.06
2023-01-19T07:17:43.730Z,-0.04
2023-01-19T07:22:46.822Z,0.05
2023-01-19T07:27:49.677Z,0.14
2023-01-19T07:32:56.215Z,0.20
2023-01-19T07:37:59.526Z,0.23
2023-01-19T07:43:03.335Z,0.26
2023-01-19T07:48:06.963Z,0.29
2023-01-19T07:53:12.034Z,0.30
2023-01-19T07:58:15.157Z,0.31
2023-01-19T08:03:18.968Z,0.33
2023-01-19T08:08:21.867Z,0.36
2023-01-19T08:13:25.080Z,0.41
2023-01-19T08:18:28.090Z,0.48
2023-01-19T08:23:31.426Z,0.56
2023-01-19T08:28:34.410Z,0.62
2023-01-19T08:33:37.308Z,0.70
2023-01-19T08:38:43.695Z,0.79
2023-01-19T08:43:46.709Z,0.93
2023-01-19T08:48:50.577Z,1.09
2023-01-19T08:53:53.532Z,1.19
2023-01-19T08:59:08.254Z,1.32
2023-01-19T09:04:12.469Z,1.36
2023-01-19T09:09:15.458Z,1.35
2023-01-19T09:14:18.363Z,1.38
2023-01-19T09:19:21.381Z,1.42
2023-01-19T09:24:24.375Z,1.48
2023-01-19T09:29:27.384Z,1.59
2023-01-19T09:34:31.620Z,1.77
2023-01-19T09:39:34.736Z,1.95
2023-01-19T09:44:37.942Z,2.10
2023-01-19T09:49:51.489Z,2.23
2023-01-19T09:54:57.059Z,2.26
2023-01-19T10:00:00.164Z,2.29
2023-01-19T10:05:13.515Z,2.33
2023-01-19T10:10:23.893Z,2.40
2023-01-19T10:15:32.847Z,2.47
2023-01-19T10:20:41.637Z,2.54
2023-01-19T10:25:45.443Z,2.59
2023-01-19T10:30:49.095Z,2.68
2023-01-19T10:35:52.043Z,2.63
2023-01-19T10:41:05.247Z,2.54
2023-01-19T10:46:20.232Z,2.55
2023-01-19T10:51:23.661Z,2.54
2023-01-19T10:56:38.103Z,2.55
2023-01-19T11:01:41.139Z,2.68
2023-01-19T11:06:44.275Z,2.87
2023-01-19T11:11:52.593Z,3.02
2023-01-19T11:16:58.267Z,3.06
2023-01-19T11:22:22.954Z,2.97
2023-01-19T11:27:27.222Z,2.87
2023-01-19T11:32:30.339Z,2.81
2023-01-19T11:37:35.346Z,2.79
2023-01-19T11:42:38.803Z,2.86
2023-01-19T11:47:45.097Z,2.90
2023-01-19T11:53:06.121Z,2.86
2023-01-19T11:58:16.188Z,2.83
2023-01-19T12:03:44.394Z,2.76
2023-01-19T12:08:49.852Z,2.66
2023-01-19T12:13:54.029Z,2.56
2023-01-19T12:19:04.669Z,2.53
2023-01-19T12:24:23.701Z,2.53
2023-01-19T12:29:32.091Z,2.54
2023-01-19T12:34:46.649Z,2.56
2023-01-19T12:39:50.557Z,2.58
2023-01-19T12:45:15.323Z,2.60
2023-01-19T12:50:23.496Z,2.67
2023-01-19T12:55:33.467Z,3.09
2023-01-19T13:00:43.072Z,3.78
2023-01-19T13:05:51.181Z,3.84
2023-01-19T13:11:00.492Z,3.92
2023-01-19T13:16:19.152Z,3.68
2023-01-19T13:21:34.427Z,3.46
2023-01-19T13:26:40.947Z,3.15
2023-01-19T13:31:46.120Z,3.02
2023-01-19T13:36:54.920Z,3.13
2023-01-19T13:42:02.895Z,2.94
2023-01-19T13:47:12.615Z,2.69
2023-01-19T13:52:17.481Z,2.50
2023-01-19T13:57:24.549Z,2.38
2023-01-19T14:02:27.666Z,2.29
2023-01-19T14:07:30.882Z,2.19
2023-01-19T14:12:33.772Z,2.12
2023-01-19T14:17:36.934Z,2.03
2023-01-19T14:22:43.206Z,1.95
2023-01-19T14:27:46.572Z,1.87
2023-01-19T14:32:49.580Z,1.80
2023-01-19T14:37:52.789Z,1.73
2023-01-19T14:43:00.299Z,1.68
2023-01-19T14:48:06.893Z,1.66
2023-01-19T14:53:25.817Z,1.60
2023-01-19T14:58:32.345Z,1.55
2023-01-19T15:03:43.982Z,1.53
2023-01-19T15:08:50.345Z,1.50
2023-01-19T15:13:54.599Z,1.47
2023-01-19T15:18:57.690Z,1.46
2023-01-19T15:24:01.229Z,1.45
2023-01-19T15:29:17.029Z,1.44
2023-01-19T15:34:19.931Z,1.43
2023-01-19T15:39:23.349Z,1.43
2023-01-19T15:44:26.257Z,1.44
2023-01-19T15:49:31.121Z,1.45
2023-01-19T15:54:34.004Z,1.45
2023-01-19T15:59:37.315Z,1.45
2023-01-19T16:04:40.221Z,1.45
2023-01-19T16:09:43.120Z,1.48
2023-01-19T16:14:46.027Z,1.51
2023-01-19T16:19:49.035Z,1.53
2023-01-19T16:24:53.277Z,1.53
2023-01-19T16:29:57.313Z,1.54
2023-01-19T16:35:00.601Z,1.55
2023-01-19T16:40:04.421Z,1.54
2023-01-19T16:45:08.217Z,1.52
2023-01-19T16:50:12.053Z,1.50
2023-01-19T16:55:15.208Z,1.45
2023-01-19T17:00:19.144Z,1.41
2023-01-19T17:05:22.652Z,1.39
2023-01-19T17:10:25.555Z,1.38
2023-01-19T17:15:28.464Z,1.38
2023-01-19T17:20:34.126Z,1.38
2023-01-19T17:25:37.038Z,1.36
2023-01-19T17:30:39.901Z,1.35
2023-01-19T17:35:43.228Z,1.32
2023-01-19T17:40:46.765Z,1.31
2023-01-19T17:45:49.781Z,1.31
2023-01-19T17:50:54.415Z,1.32
2023-01-19T17:56:07.230Z,1.31
2023-01-19T18:01:16.391Z,1.31
2023-01-19T18:06:20.157Z,1.29
2023-01-19T18:11:23.134Z,1.27
2023-01-19T18:16:28.905Z,1.26
2023-01-19T18:21:31.813Z,1.26
2023-01-19T18:26:35.417Z,1.25
2023-01-19T18:31:38.387Z,1.25
2023-01-19T18:36:41.443Z,1.23
2023-01-19T18:41:44.552Z,1.23
2023-01-19T18:46:47.453Z,1.24
2023-01-19T18:51:50.355Z,1.26
2023-01-19T18:56:53.262Z,1.27
2023-01-19T19:01:56.306Z,1.27
2023-01-19T19:06:59.433Z,1.29
2023-01-19T19:12:02.690Z,1.31
2023-01-19T19:17:05.810Z,1.33
2023-01-19T19:22:08.806Z,1.36
2023-01-19T19:27:14.492Z,1.38
2023-01-19T19:32:20.612Z,1.40
2023-01-19T19:37:24.059Z,1.42
2023-01-19T19:42:30.265Z,1.44
2023-01-19T19:47:34.042Z,1.45
2023-01-19T19:52:41.444Z,1.46
2023-01-19T19:57:44.913Z,1.45
2023-01-19T20:02:50.853Z,1.45
2023-01-19T20:07:53.927Z,1.46
2023-01-19T20:12:56.797Z,1.47
2023-01-19T20:17:59.695Z,1.48
2023-01-19T20:23:02.604Z,1.48
2023-01-19T20:28:05.503Z,1.48
2023-01-19T20:33:08.411Z,1.47
2023-01-19T20:38:11.313Z,1.43
2023-01-19T20:43:14.216Z,1.41
2023-01-19T20:48:17.121Z,1.42
2023-01-19T20:53:20.332Z,1.41
2023-01-19T20:58:23.359Z,1.40
2023-01-19T21:03:26.344Z,1.40
2023-01-19T21:08:29.252Z,1.39
2023-01-19T21:13:32.571Z,1.37
2023-01-19T21:18:35.580Z,1.37
2023-01-19T21:23:38.575Z,1.37
2023-01-19T21:28:42.105Z,1.36
2023-01-19T21:33:45.412Z,1.37
2023-01-19T21:38:48.975Z,1.37
2023-01-19T21:43:52.051Z,1.38
2023-01-19T21:49:02.846Z,1.40
2023-01-19T21:54:06.851Z,1.39
2023-01-19T21:59:15.150Z,1.38
2023-01-19T22:04:18.195Z,1.34
2023-01-19T22:09:21.198Z,1.32
2023-01-19T22:14:24.104Z,1.33
2023-01-19T22:19:27.317Z,1.36
2023-01-19T22:24:30.217Z,1.38
2023-01-19T22:29:33.122Z,1.39
2023-01-19T22:34:36.132Z,1.39
2023-01-19T22:39:39.083Z,1.39
2023-01-19T22:44:42.243Z,1.39
2023-01-19T22:49:45.157Z,1.38
2023-01-19T22:54:48.052Z,1.37
2023-01-19T22:59:51.186Z,1.36
2023-01-19T23:04:54.170Z,1.33
2023-01-19T23:09:57.081Z,1.32
2023-01-19T23:14:59.981Z,1.31
2023-01-19T23:20:04.958Z,1.32
2023-01-19T23:25:08.883Z,1.33
2023-01-19T23:30:12.538Z,1.34
2023-01-19T23:35:16.292Z,1.35
2023-01-19T23:40:20.031Z,1.33
2023-01-19T23:45:22.876Z,1.31
2023-01-19T23:50:25.838Z,1.30
2023-01-19T23:55:28.827Z,1.29
